createdAt,value
2022-09-30T00:02:14.867Z,13.73
2022-09-30T00:07:18.659Z,11.87
2022-09-30T00:12:29.603Z,10.63
2022-09-30T00:17:32.290Z,10.87
2022-09-30T00:22:33.983Z,13.85
2022-09-30T00:27:41.638Z,12.48
2022-09-30T00:32:49.270Z,10.07
2022-09-30T00:37:55.211Z,12.87
2022-09-30T00:42:59.206Z,11.67
2022-09-30T00:48:08.246Z,10.30
2022-09-30T00:53:50.644Z,13.33
2022-09-30T00:59:00.259Z,10.40
2022-09-30T01:04:13.991Z,10.43
2022-09-30T01:09:24.131Z,9.00
2022-09-30T01:14:30.575Z,12.63
2022-09-30T01:20:17.091Z,8.63
2022-09-30T01:25:24.297Z,9.43
2022-09-30T01:31:05.751Z,10.27
2022-09-30T01:36:24.326Z,11.33
2022-09-30T01:41:55.456Z,11.03
2022-09-30T01:47:25.543Z,11.43
2022-09-30T01:52:34.074Z,9.10
2022-09-30T01:57:57.157Z,9.40
2022-09-30T02:03:04.631Z,12.97
2022-09-30T02:08:42.372Z,14.83
2022-09-30T02:14:15.917Z,10.80
2022-09-30T02:19:26.551Z,14.07
2022-09-30T02:24:37.023Z,15.53
2022-09-30T02:29:42.252Z,20.83
2022-09-30T02:34:54.338Z,20.07
2022-09-30T02:40:02.432Z,19.80
2022-09-30T02:45:10.764Z,20.00
2022-09-30T02:50:56.793Z,16.63
2022-09-30T02:56:04.468Z,22.53
2022-09-30T03:01:11.447Z,22.73
2022-09-30T03:06:15.442Z,21.80
2022-09-30T03:11:23.731Z,18.60
2022-09-30T03:16:39.818Z,23.73
2022-09-30T03:22:19.283Z,21.27
2022-09-30T03:27:41.033Z,18.97
2022-09-30T03:33:10.127Z,17.00
2022-09-30T03:38:24.066Z,13.80
2022-09-30T03:43:39.241Z,17.27
2022-09-30T03:48:43.825Z,17.30
2022-09-30T03:53:56.853Z,16.07
2022-09-30T03:59:00.352Z,14.83
2022-09-30T04:04:02.151Z,18.83
2022-09-30T04:09:09.217Z,16.17
2022-09-30T04:14:24.408Z,14.03
2022-09-30T04:19:27.329Z,15.70
2022-09-30T04:24:29.517Z,13.97
2022-09-30T04:29:31.291Z,13.07
2022-09-30T04:34:35.454Z,13.50
2022-09-30T04:39:39.455Z,13.07
2022-09-30T04:44:41.279Z,15.37
2022-09-30T04:49:43.883Z,15.17
2022-09-30T04:54:45.581Z,15.77
2022-09-30T04:59:53.313Z,19.13
2022-09-30T05:04:57.401Z,16.50
2022-09-30T05:10:07.701Z,11.20
2022-09-30T05:15:12.312Z,16.20
2022-09-30T05:20:20.826Z,14.67
2022-09-30T05:25:26.856Z,11.93
2022-09-30T05:30:30.804Z,15.33
2022-09-30T05:35:34.966Z,16.77
2022-09-30T05:40:40.256Z,13.70
2022-09-30T05:45:42.061Z,15.40
2022-09-30T05:50:44.699Z,16.10
2022-09-30T05:55:51.422Z,17.53
2022-09-30T06:00:55.521Z,15.87
2022-09-30T06:06:00.610Z,16.97
2022-09-30T06:11:11.853Z,22.40
2022-09-30T06:16:18.048Z,22.87
2022-09-30T06:21:20.155Z,16.57
2022-09-30T06:26:24.206Z,17.83
2022-09-30T06:31:31.628Z,18.93
2022-09-30T06:36:37.938Z,23.63
2022-09-30T06:41:44.118Z,22.33
2022-09-30T06:46:54.817Z,24.00
2022-09-30T06:51:56.665Z,19.43
2022-09-30T06:57:00.603Z,17.93
2022-09-30T07:02:05.623Z,26.07
2022-09-30T07:07:12.815Z,17.13
2022-09-30T07:12:17.366Z,18.53
2022-09-30T07:17:22.120Z,14.53
2022-09-30T07:22:31.493Z,18.85
2022-09-30T07:27:41.923Z,14.25
2022-09-30T07:32:47.611Z,16.60
2022-09-30T07:37:53.307Z,13.35
2022-09-30T07:42:55.223Z,8.82
2022-09-30T07:48:01.446Z,9.18
2022-09-30T07:53:04.127Z,11.30
2022-09-30T07:58:07.868Z,11.18
2022-09-30T08:03:10.835Z,9.68
2022-09-30T08:08:17.714Z,5.50
2022-09-30T08:13:20.157Z,9.48
2022-09-30T08:18:22.617Z,9.23
2022-09-30T08:23:32.783Z,5.57
2022-09-30T08:28:42.639Z,4.90
2022-09-30T08:33:55.167Z,11.75
2022-09-30T08:38:57.588Z,5.57
2022-09-30T08:44:27.198Z,4.97
2022-09-30T08:49:47.602Z,8.30
2022-09-30T08:54:57.061Z,5.40
2022-09-30T09:00:05.382Z,7.05
2022-09-30T09:05:18.004Z,11.15
2022-09-30T09:10:24.057Z,7.35
2022-09-30T09:15:47.529Z,5.55
2022-09-30T09:21:00.708Z,6.32
2022-09-30T09:26:04.595Z,11.77
2022-09-30T09:31:17.137Z,7.88
2022-09-30T09:36:32.864Z,5.85
2022-09-30T09:41:52.679Z,5.25
2022-09-30T09:47:14.032Z,4.82
2022-09-30T09:53:01.326Z,4.65
2022-09-30T09:58:19.009Z,7.90
2022-09-30T10:03:23.555Z,4.63
2022-09-30T10:08:29.129Z,8.98
2022-09-30T10:14:03.255Z,5.97
2022-09-30T10:19:18.524Z,4.63
2022-09-30T10:24:27.065Z,4.80
2022-09-30T10:29:32.169Z,4.65
2022-09-30T10:34:41.822Z,3.35
2022-09-30T10:39:56.416Z,4.32
2022-09-30T10:45:02.271Z,4.75
2022-09-30T10:50:08.435Z,3.10
2022-09-30T10:55:20.513Z,3.95
2022-09-30T11:00:26.022Z,4.60
2022-09-30T11:05:34.604Z,5.43
2022-09-30T11:10:36.760Z,2.85
2022-09-30T11:16:07.551Z,6.05
2022-09-30T11:21:33.097Z,4.35
2022-09-30T11:27:06.360Z,4.38
2022-09-30T11:32:28.134Z,4.22
2022-09-30T11:37:32.280Z,3.63
2022-09-30T11:43:03.158Z,4.07
2022-09-30T11:48:14.087Z,3.05
2022-09-30T11:53:23.466Z,2.53
2022-09-30T11:58:46.296Z,2.60
2022-09-30T12:04:40.762Z,3.05
2022-09-30T12:09:50.574Z,2.45
2022-09-30T12:15:13.645Z,2.72
2022-09-30T12:20:34.461Z,2.35
2022-09-30T12:25:52.035Z,2.78
2022-09-30T12:31:08.341Z,2.40
2022-09-30T12:36:34.420Z,2.60
2022-09-30T12:41:58.999Z,2.08
2022-09-30T12:47:21.105Z,4.22
2022-09-30T12:52:32.116Z,3.55
2022-09-30T12:57:41.745Z,2.13
2022-09-30T13:02:51.154Z,3.78
2022-09-30T13:08:05.100Z,1.77
2022-09-30T13:13:31.778Z,3.45
2022-09-30T13:18:34.346Z,3.13
2022-09-30T13:23:42.962Z,2.47
2022-09-30T13:28:49.123Z,3.25
2022-09-30T13:34:02.611Z,3.55
2022-09-30T13:39:46.599Z,1.65
2022-09-30T13:45:16.431Z,1.65
2022-09-30T13:50:19.979Z,2.70
2022-09-30T13:55:29.044Z,3.28
2022-09-30T14:00:47.281Z,2.25
2022-09-30T14:06:00.170Z,3.97
2022-09-30T14:11:17.923Z,3.65
2022-09-30T14:16:36.085Z,3.60
2022-09-30T14:21:49.343Z,3.53
2022-09-30T14:26:57.545Z,2.25
2022-09-30T14:32:00.329Z,6.15
2022-09-30T14:37:04.881Z,5.32
2022-09-30T14:42:14.582Z,3.90
2022-09-30T14:47:22.859Z,5.57
2022-09-30T14:52:38.416Z,3.25
2022-09-30T14:57:45.973Z,3.00
2022-09-30T15:02:49.939Z,4.97
2022-09-30T15:07:51.791Z,5.72
2022-09-30T15:12:56.090Z,5.03
2022-09-30T15:17:57.860Z,9.05
2022-09-30T15:23:03.363Z,5.57
2022-09-30T15:28:07.038Z,9.43
2022-09-30T15:33:18.525Z,6.85
2022-09-30T15:38:25.397Z,7.57
2022-09-30T15:43:37.741Z,10.63
2022-09-30T15:48:44.952Z,9.82
2022-09-30T15:53:48.247Z,7.50
2022-09-30T15:58:57.006Z,9.25
2022-09-30T16:04:11.043Z,8.23
2022-09-30T16:09:36.488Z,8.95
2022-09-30T16:14:49.661Z,7.05
2022-09-30T16:19:55.008Z,9.25
2022-09-30T16:25:15.790Z,10.85
2022-09-30T16:30:22.488Z,10.35
2022-09-30T16:35:33.652Z,9.45
2022-09-30T16:40:35.832Z,12.15
2022-09-30T16:45:38.539Z,12.55
2022-09-30T16:50:43.329Z,14.25
2022-09-30T16:55:48.168Z,11.40
2022-09-30T17:00:49.943Z,13.32
2022-09-30T17:05:55.675Z,9.82
2022-09-30T17:11:01.419Z,16.10
2022-09-30T17:16:04.406Z,20.38
2022-09-30T17:21:06.175Z,21.70
2022-09-30T17:26:15.160Z,14.27
2022-09-30T17:31:22.149Z,12.35
2022-09-30T17:36:27.700Z,11.38
2022-09-30T17:41:53.547Z,12.80
2022-09-30T17:47:00.228Z,15.05
2022-09-30T17:52:06.722Z,14.40
2022-09-30T17:57:11.493Z,11.88
2022-09-30T18:02:17.655Z,14.52
2022-09-30T18:07:23.797Z,12.85
2022-09-30T18:12:34.994Z,15.82
2022-09-30T18:17:42.186Z,11.73
2022-09-30T18:22:44.809Z,12.00
2022-09-30T18:27:57.298Z,13.98
2022-09-30T18:32:59.436Z,11.50
2022-09-30T18:38:04.803Z,15.45
2022-09-30T18:43:11.152Z,13.63
2022-09-30T18:48:14.567Z,13.18
2022-09-30T18:53:16.344Z,11.50
2022-09-30T18:58:18.905Z,14.45
2022-09-30T19:03:20.812Z,12.95
2022-09-30T19:08:22.665Z,19.98
2022-09-30T19:13:27.439Z,14.75
2022-09-30T19:18:31.881Z,12.05
2022-09-30T19:23:34.096Z,14.10
2022-09-30T19:28:40.582Z,13.68
2022-09-30T19:33:56.041Z,12.88
2022-09-30T19:39:11.441Z,14.52
2022-09-30T19:44:18.776Z,15.65
2022-09-30T19:49:23.857Z,12.82
2022-09-30T19:54:36.450Z,18.17
2022-09-30T19:59:51.446Z,15.10
2022-09-30T20:04:53.834Z,16.85
2022-09-30T20:09:58.302Z,20.85
2022-09-30T20:15:18.893Z,17.30
2022-09-30T20:20:37.157Z,15.15
2022-09-30T20:25:39.138Z,17.05
2022-09-30T20:30:45.654Z,20.05
2022-09-30T20:35:48.172Z,15.48
2022-09-30T20:40:56.630Z,17.38
2022-09-30T20:46:05.279Z,14.23
2022-09-30T20:51:12.645Z,15.57
2022-09-30T20:56:16.369Z,14.77
2022-09-30T21:01:23.689Z,15.38
2022-09-30T21:06:28.063Z,15.25
2022-09-30T21:11:29.906Z,15.73
2022-09-30T21:16:31.958Z,14.70
2022-09-30T21:21:36.745Z,14.10
2022-09-30T21:26:38.418Z,18.23
2022-09-30T21:31:45.492Z,15.65
2022-09-30T21:36:53.520Z,14.02
2022-09-30T21:41:56.000Z,16.75
2022-09-30T21:47:02.647Z,16.40
2022-09-30T21:52:09.180Z,14.90
2022-09-30T21:57:13.106Z,15.57
2022-09-30T22:02:17.520Z,13.65
2022-09-30T22:07:24.094Z,13.40
2022-09-30T22:12:28.220Z,12.48
2022-09-30T22:17:32.335Z,10.68
2022-09-30T22:22:36.649Z,11.63
2022-09-30T22:27:40.868Z,16.02
2022-09-30T22:32:45.111Z,10.65
2022-09-30T22:38:11.126Z,9.70
2022-09-30T22:43:17.766Z,9.27
2022-09-30T22:48:22.540Z,11.88
2022-09-30T22:53:29.271Z,12.15
2022-09-30T22:58:36.923Z,10.40
2022-09-30T23:03:42.383Z,10.38
2022-09-30T23:08:49.307Z,12.15
2022-09-30T23:13:59.021Z,9.18
2022-09-30T23:19:02.401Z,10.68
2022-09-30T23:24:04.823Z,9.23
2022-09-30T23:29:18.902Z,11.45
2022-09-30T23:34:22.779Z,8.10
2022-09-30T23:39:26.617Z,8.70
2022-09-30T23:44:32.945Z,9.50
2022-09-30T23:49:40.268Z,7.22
2022-09-30T23:54:42.451Z,9.13
2022-09-30T23:59:46.462Z,6.53
